createdAt,value
2022-08-30T00:01:57.882Z,73.78
2022-08-30T00:04:24.535Z,73.49
2022-08-30T00:06:50.985Z,73.61
2022-08-30T00:09:17.479Z,73.61
2022-08-30T00:11:43.880Z,73.87
2022-08-30T00:14:10.387Z,73.68
2022-08-30T00:16:36.853Z,73.54
2022-08-30T00:19:06.394Z,74.03
2022-08-30T00:21:39.454Z,74.34
2022-08-30T00:24:06.192Z,73.84
2022-08-30T00:26:32.586Z,74.17
2022-08-30T00:28:59.080Z,74.56
2022-08-30T00:31:25.586Z,74.66
2022-08-30T00:33:52.150Z,74.68
2022-08-30T00:36:18.565Z,74.99
2022-08-30T00:38:45.091Z,75.26
2022-08-30T00:41:11.590Z,75.67
2022-08-30T00:43:38.240Z,75.76
2022-08-30T00:46:08.681Z,76.35
2022-08-30T00:48:38.904Z,76.54
2022-08-30T00:51:11.689Z,76.63
2022-08-30T00:53:42.567Z,76.85
2022-08-30T00:56:10.119Z,76.54
2022-08-30T00:58:42.442Z,76.58
2022-08-30T01:01:09.822Z,76.07
2022-08-30T01:03:38.175Z,75.86
2022-08-30T01:06:05.852Z,75.68
2022-08-30T01:08:32.355Z,75.58
2022-08-30T01:11:00.178Z,75.43
2022-08-30T01:13:27.565Z,75.40
2022-08-30T01:15:54.855Z,75.08
2022-08-30T01:18:23.719Z,74.27
2022-08-30T01:21:01.353Z,74.78
2022-08-30T01:23:28.793Z,74.11
2022-08-30T01:25:56.663Z,74.31
2022-08-30T01:28:25.658Z,74.35
2022-08-30T01:30:53.223Z,73.78
2022-08-30T01:33:20.880Z,73.46
2022-08-30T01:35:47.410Z,73.32
2022-08-30T01:38:14.890Z,72.81
2022-08-30T01:40:41.644Z,72.64
2022-08-30T01:43:10.075Z,72.36
2022-08-30T01:45:36.639Z,72.04
2022-08-30T01:48:03.839Z,71.79
2022-08-30T01:50:33.889Z,71.59
2022-08-30T01:53:00.863Z,71.61
2022-08-30T01:55:27.752Z,71.44
2022-08-30T01:57:54.278Z,71.38
2022-08-30T02:00:20.842Z,71.41
2022-08-30T02:02:47.360Z,71.43
2022-08-30T02:05:13.827Z,71.34
2022-08-30T02:07:40.424Z,71.30
2022-08-30T02:10:07.560Z,71.23
2022-08-30T02:12:34.890Z,71.16
2022-08-30T02:15:01.383Z,70.88
2022-08-30T02:17:27.951Z,70.92
2022-08-30T02:19:54.438Z,70.78
2022-08-30T02:22:20.989Z,70.58
2022-08-30T02:24:47.437Z,70.60
2022-08-30T02:27:13.823Z,70.75
2022-08-30T02:29:40.331Z,70.70
2022-08-30T02:32:06.991Z,70.69
2022-08-30T02:34:33.842Z,70.68
2022-08-30T02:37:01.001Z,70.65
2022-08-30T02:39:27.588Z,70.74
2022-08-30T02:41:54.051Z,70.66
2022-08-30T02:44:20.516Z,70.73
2022-08-30T02:46:48.267Z,70.76
2022-08-30T02:49:33.575Z,70.77
2022-08-30T02:52:00.242Z,70.50
2022-08-30T02:54:26.778Z,70.56
2022-08-30T02:56:53.931Z,70.66
2022-08-30T02:59:20.406Z,70.67
2022-08-30T03:01:46.961Z,70.54
2022-08-30T03:04:13.446Z,70.50
2022-08-30T03:06:41.405Z,70.60
2022-08-30T03:09:08.131Z,70.54
2022-08-30T03:11:34.826Z,70.47
2022-08-30T03:14:01.314Z,70.85
2022-08-30T03:16:27.934Z,70.92
2022-08-30T03:18:54.481Z,70.64
2022-08-30T03:21:20.938Z,71.29
2022-08-30T03:23:47.421Z,71.31
2022-08-30T03:26:14.995Z,71.51
2022-08-30T03:28:43.084Z,72.03
2022-08-30T03:31:10.083Z,72.21
2022-08-30T03:33:40.000Z,72.56
2022-08-30T03:36:08.478Z,72.66
2022-08-30T03:38:35.124Z,72.76
2022-08-30T03:41:01.825Z,72.84
2022-08-30T03:43:28.506Z,73.10
2022-08-30T03:45:55.911Z,73.29
2022-08-30T03:48:22.400Z,73.08
2022-08-30T03:50:48.816Z,73.48
2022-08-30T03:53:15.418Z,73.42
2022-08-30T03:55:41.911Z,73.60
2022-08-30T03:58:08.408Z,73.74
2022-08-30T04:00:34.787Z,73.33
2022-08-30T04:03:01.443Z,73.71
2022-08-30T04:05:27.938Z,73.37
2022-08-30T04:07:54.740Z,73.83
2022-08-30T04:10:21.430Z,73.56
2022-08-30T04:12:50.986Z,73.64
2022-08-30T04:15:19.485Z,73.91
2022-08-30T04:17:46.415Z,73.70
2022-08-30T04:20:12.859Z,73.52
2022-08-30T04:22:39.338Z,73.50
2022-08-30T04:25:06.819Z,73.64
2022-08-30T04:27:33.709Z,73.58
2022-08-30T04:30:00.634Z,73.64
2022-08-30T04:32:27.617Z,73.67
2022-08-30T04:34:58.534Z,73.99
2022-08-30T04:37:25.174Z,73.55
2022-08-30T04:39:55.893Z,73.86
2022-08-30T04:42:22.332Z,73.22
2022-08-30T04:44:49.023Z,73.06
2022-08-30T04:47:15.440Z,73.10
2022-08-30T04:49:41.875Z,73.20
2022-08-30T04:52:10.133Z,72.97
2022-08-30T04:54:36.886Z,73.13
2022-08-30T04:57:03.719Z,73.05
2022-08-30T04:59:30.187Z,73.14
2022-08-30T05:01:56.686Z,72.90
2022-08-30T05:04:23.168Z,73.21
2022-08-30T05:06:49.669Z,73.35
2022-08-30T05:09:16.342Z,72.93
2022-08-30T05:11:43.367Z,73.28
2022-08-30T05:14:10.556Z,73.10
2022-08-30T05:16:37.186Z,73.28
2022-08-30T05:19:03.983Z,73.17
2022-08-30T05:21:30.571Z,73.30
2022-08-30T05:24:00.095Z,73.12
2022-08-30T05:26:35.997Z,73.44
2022-08-30T05:29:02.567Z,72.93
2022-08-30T05:31:31.972Z,72.83
2022-08-30T05:33:59.152Z,72.97
2022-08-30T05:36:28.191Z,73.21
2022-08-30T05:38:55.526Z,73.08
2022-08-30T05:41:26.697Z,73.16
2022-08-30T05:43:58.848Z,73.52
2022-08-30T05:46:29.411Z,73.04
2022-08-30T05:48:57.278Z,73.04
2022-08-30T05:51:26.509Z,73.35
2022-08-30T05:53:53.863Z,72.57
2022-08-30T05:56:24.807Z,72.61
2022-08-30T05:58:52.419Z,72.65
2022-08-30T06:01:25.593Z,72.69
2022-08-30T06:03:54.378Z,71.95
2022-08-30T06:06:21.635Z,71.80
2022-08-30T06:08:49.111Z,71.53
2022-08-30T06:11:19.346Z,71.43
2022-08-30T06:13:46.160Z,71.46
2022-08-30T06:16:14.180Z,70.80
2022-08-30T06:18:40.968Z,70.59
2022-08-30T06:21:07.437Z,70.02
2022-08-30T06:23:34.228Z,69.77
2022-08-30T06:26:07.664Z,70.13
2022-08-30T06:28:34.948Z,69.49
2022-08-30T06:31:01.792Z,69.09
2022-08-30T06:33:28.299Z,68.73
2022-08-30T06:35:58.352Z,69.56
2022-08-30T06:38:25.155Z,68.81
2022-08-30T06:40:51.585Z,67.74
2022-08-30T06:43:18.270Z,67.40
2022-08-30T06:45:44.705Z,67.52
2022-08-30T06:48:11.250Z,66.81
2022-08-30T06:50:38.081Z,66.08
2022-08-30T06:53:06.025Z,66.34
2022-08-30T06:55:33.462Z,66.15
2022-08-30T06:58:01.278Z,66.18
2022-08-30T07:00:28.904Z,66.25
2022-08-30T07:02:55.534Z,65.05
2022-08-30T07:05:23.580Z,65.54
2022-08-30T07:07:54.206Z,65.65
2022-08-30T07:10:21.784Z,65.23
2022-08-30T07:12:48.860Z,64.38
2022-08-30T07:15:15.668Z,64.43
2022-08-30T07:18:00.813Z,63.95
2022-08-30T07:20:27.413Z,64.17
2022-08-30T07:22:53.893Z,63.59
2022-08-30T07:25:20.561Z,63.15
2022-08-30T07:27:47.074Z,63.10
2022-08-30T07:30:14.116Z,62.76
2022-08-30T07:32:40.672Z,62.88
2022-08-30T07:35:07.410Z,62.89
2022-08-30T07:37:33.987Z,62.82
2022-08-30T07:40:00.622Z,62.59
2022-08-30T07:42:27.381Z,62.40
2022-08-30T07:44:56.778Z,63.10
2022-08-30T07:47:23.569Z,61.79
2022-08-30T07:49:50.042Z,61.48
2022-08-30T07:52:16.473Z,61.49
2022-08-30T07:54:43.107Z,62.05
2022-08-30T07:57:09.711Z,60.85
2022-08-30T07:59:36.376Z,61.35
2022-08-30T08:02:03.458Z,60.62
2022-08-30T08:04:29.995Z,60.56
2022-08-30T08:06:56.425Z,59.71
2022-08-30T08:09:23.037Z,59.43
2022-08-30T08:11:49.779Z,58.93
2022-08-30T08:16:48.463Z,58.63
2022-08-30T08:19:15.479Z,59.18
2022-08-30T08:21:41.967Z,59.07
2022-08-30T08:24:08.602Z,58.85
2022-08-30T08:26:37.350Z,58.15
2022-08-30T08:29:05.826Z,56.70
2022-08-30T08:31:33.326Z,56.97
2022-08-30T08:34:03.078Z,57.82
2022-08-30T08:36:31.285Z,56.61
2022-08-30T08:38:58.552Z,55.84
2022-08-30T08:41:40.210Z,56.49
2022-08-30T08:44:34.752Z,57.21
2022-08-30T08:47:36.669Z,57.25
2022-08-30T08:50:08.107Z,55.55
2022-08-30T08:53:20.386Z,56.96
2022-08-30T08:55:53.161Z,55.60
2022-08-30T08:58:29.403Z,56.69
2022-08-30T09:00:58.101Z,55.33
2022-08-30T09:03:28.400Z,55.31
2022-08-30T09:05:55.494Z,54.33
2022-08-30T09:08:23.525Z,54.26
2022-08-30T09:11:01.689Z,55.56
2022-08-30T09:13:28.475Z,54.57
2022-08-30T09:15:59.558Z,55.53
2022-08-30T09:18:51.372Z,56.12
2022-08-30T09:21:25.644Z,54.98
2022-08-30T09:24:00.930Z,54.85
2022-08-30T09:26:36.135Z,55.15
2022-08-30T09:29:05.112Z,55.76
2022-08-30T09:31:46.272Z,55.76
2022-08-30T09:34:18.377Z,55.77
2022-08-30T09:36:49.770Z,56.24
2022-08-30T09:39:34.498Z,56.53
2022-08-30T09:42:31.021Z,56.74
2022-08-30T09:45:10.459Z,55.62
2022-08-30T09:47:43.148Z,56.36
2022-08-30T09:50:15.817Z,55.36
2022-08-30T09:52:55.460Z,54.36
2022-08-30T09:55:22.061Z,54.61
2022-08-30T09:58:06.230Z,54.61
2022-08-30T10:00:41.105Z,55.17
2022-08-30T10:03:35.715Z,55.58
2022-08-30T10:06:06.569Z,54.10
2022-08-30T10:08:45.278Z,54.33
2022-08-30T10:11:20.535Z,54.06
2022-08-30T10:13:58.958Z,52.58
2022-08-30T10:16:40.013Z,52.92
2022-08-30T10:19:43.067Z,51.87
2022-08-30T10:22:17.775Z,51.28
2022-08-30T10:24:50.382Z,49.97
2022-08-30T10:27:31.954Z,48.43
2022-08-30T10:30:08.525Z,46.25
2022-08-30T10:32:48.456Z,44.80
2022-08-30T10:35:29.072Z,44.87
2022-08-30T10:38:08.026Z,45.50
2022-08-30T10:40:56.284Z,42.96
2022-08-30T10:43:34.510Z,43.80
2022-08-30T10:46:05.718Z,44.11
2022-08-30T10:48:44.358Z,44.37
2022-08-30T10:51:41.932Z,44.85
2022-08-30T10:54:18.566Z,44.57
2022-08-30T10:56:49.570Z,45.71
2022-08-30T10:59:20.435Z,45.41
2022-08-30T11:02:07.746Z,46.05
2022-08-30T11:04:45.466Z,46.40
2022-08-30T11:07:30.840Z,46.92
2022-08-30T11:10:16.122Z,47.25
2022-08-30T11:12:51.392Z,48.19
2022-08-30T11:15:24.652Z,48.97
2022-08-30T11:18:09.414Z,49.95
2022-08-30T11:20:50.043Z,49.58
2022-08-30T11:23:36.371Z,49.66
2022-08-30T11:26:12.079Z,48.35
2022-08-30T11:28:47.307Z,47.52
2022-08-30T11:31:23.652Z,48.85
2022-08-30T11:33:58.861Z,49.20
2022-08-30T11:36:37.420Z,49.32
2022-08-30T11:39:10.631Z,50.07
2022-08-30T11:41:43.178Z,49.43
2022-08-30T11:44:28.617Z,49.38
2022-08-30T11:47:01.899Z,50.76
2022-08-30T11:50:09.718Z,49.23
2022-08-30T11:52:56.487Z,48.01
2022-08-30T11:55:23.096Z,47.10
2022-08-30T11:58:24.055Z,47.89
2022-08-30T12:01:40.949Z,47.22
2022-08-30T12:04:05.941Z,46.48
2022-08-30T12:06:41.533Z,47.21
2022-08-30T12:09:33.299Z,45.48
2022-08-30T12:12:05.868Z,45.58
2022-08-30T12:14:37.105Z,44.11
2022-08-30T12:17:35.983Z,45.63
2022-08-30T12:20:05.327Z,44.49
2022-08-30T12:22:37.755Z,45.02
2022-08-30T12:25:16.644Z,45.90
2022-08-30T12:27:43.195Z,45.20
2022-08-30T12:30:10.330Z,44.37
2022-08-30T12:32:45.891Z,45.35
2022-08-30T12:35:25.625Z,45.82
2022-08-30T12:38:06.065Z,44.41
2022-08-30T12:40:34.595Z,43.25
2022-08-30T12:43:07.752Z,42.66
2022-08-30T12:45:44.050Z,43.25
2022-08-30T12:48:15.807Z,40.84
2022-08-30T12:50:55.147Z,40.68
2022-08-30T12:53:29.587Z,39.24
2022-08-30T12:55:59.647Z,39.25
2022-08-30T12:58:35.888Z,37.19
2022-08-30T13:01:28.716Z,38.14
2022-08-30T13:04:11.070Z,36.22
2022-08-30T13:06:48.528Z,35.73
2022-08-30T13:09:42.645Z,37.56
2022-08-30T13:12:30.901Z,34.81
2022-08-30T13:15:20.729Z,36.68
2022-08-30T13:17:47.367Z,34.50
2022-08-30T13:20:16.536Z,34.02
2022-08-30T13:23:02.800Z,35.30
2022-08-30T13:25:30.863Z,34.30
2022-08-30T13:28:01.143Z,34.05
2022-08-30T13:30:28.284Z,34.49
2022-08-30T13:32:55.833Z,34.51
2022-08-30T13:35:22.494Z,34.06
2022-08-30T13:37:50.667Z,33.59
2022-08-30T13:40:19.420Z,35.86
2022-08-30T13:42:46.799Z,35.73
2022-08-30T13:48:01.725Z,35.34
2022-08-30T13:50:28.203Z,36.34
2022-08-30T13:52:56.951Z,36.04
2022-08-30T13:55:23.483Z,35.77
2022-08-30T13:57:57.347Z,36.99
2022-08-30T14:00:25.608Z,34.78
2022-08-30T14:02:57.184Z,35.40
2022-08-30T14:11:05.167Z,36.53
2022-08-30T14:13:32.156Z,34.88
2022-08-30T14:18:48.872Z,33.28
2022-08-30T14:21:15.672Z,32.31
2022-08-30T14:23:42.176Z,33.00
2022-08-30T14:26:15.269Z,32.34
2022-08-30T14:28:44.801Z,32.17
2022-08-30T14:31:12.004Z,31.59
2022-08-30T14:33:39.827Z,32.32
2022-08-30T14:36:10.941Z,32.88
2022-08-30T14:38:39.701Z,33.58
2022-08-30T16:09:30.084Z,41.87
2022-08-30T16:11:59.571Z,42.79
2022-08-30T16:14:27.546Z,41.66
2022-08-30T16:16:55.262Z,40.25
2022-08-30T16:19:21.701Z,39.37
2022-08-30T16:21:48.668Z,39.52
2022-08-30T16:24:15.331Z,39.51
2022-08-30T16:26:43.053Z,41.05
2022-08-30T16:29:10.037Z,40.59
2022-08-30T16:31:37.224Z,39.94
2022-08-30T16:34:04.754Z,39.26
2022-08-30T16:36:32.674Z,38.48
2022-08-30T16:38:59.407Z,37.90
2022-08-30T16:41:26.003Z,37.20
2022-08-30T16:43:53.333Z,36.60
2022-08-30T16:46:26.905Z,35.71
2022-08-30T16:48:56.342Z,36.00
2022-08-30T16:51:25.202Z,35.82
2022-08-30T16:53:56.977Z,35.45
2022-08-30T16:56:26.542Z,35.07
2022-08-30T16:59:00.821Z,36.24
2022-08-30T17:01:30.128Z,35.51
2022-08-30T17:03:56.890Z,34.85
2022-08-30T17:06:23.578Z,34.00
2022-08-30T17:08:50.714Z,34.23
2022-08-30T17:11:22.765Z,34.27
2022-08-30T17:13:49.211Z,34.24
2022-08-30T17:16:17.681Z,34.65
2022-08-30T17:18:53.732Z,33.83
2022-08-30T17:21:20.317Z,34.09
2022-08-30T17:23:49.327Z,34.96
2022-08-30T17:26:16.618Z,35.94
2022-08-30T17:28:43.172Z,35.90
2022-08-30T17:31:11.231Z,37.13
2022-08-30T17:33:39.835Z,36.32
2022-08-30T17:36:07.218Z,35.85
2022-08-30T17:38:33.949Z,36.55
2022-08-30T17:41:05.241Z,36.97
2022-08-30T17:43:32.856Z,36.50
2022-08-30T17:46:06.961Z,37.59
2022-08-30T17:48:34.539Z,37.78
2022-08-30T17:51:02.513Z,37.96
2022-08-30T17:53:29.932Z,37.87
2022-08-30T17:55:56.501Z,38.97
2022-08-30T17:58:25.079Z,39.81
2022-08-30T18:00:54.050Z,40.08
2022-08-30T18:03:20.786Z,40.14
2022-08-30T18:05:47.517Z,40.03
2022-08-30T18:08:14.147Z,39.92
2022-08-30T18:10:40.769Z,41.12
2022-08-30T18:13:07.485Z,40.99
2022-08-30T18:15:33.927Z,41.40
2022-08-30T18:18:00.687Z,42.13
2022-08-30T18:20:27.197Z,41.99
2022-08-30T18:22:57.867Z,42.38
2022-08-30T18:25:24.386Z,43.45
2022-08-30T18:27:57.101Z,43.52
2022-08-30T18:30:31.188Z,43.64
2022-08-30T18:33:00.721Z,43.98
2022-08-30T18:35:27.582Z,46.08
2022-08-30T18:37:54.239Z,44.90
2022-08-30T18:40:21.110Z,46.19
2022-08-30T18:42:47.805Z,46.42
2022-08-30T18:45:18.970Z,46.72
2022-08-30T18:47:45.412Z,46.74
2022-08-30T18:50:12.496Z,47.08
2022-08-30T18:52:39.129Z,47.24
2022-08-30T18:55:07.273Z,48.26
2022-08-30T18:57:35.077Z,48.82
2022-08-30T19:00:03.605Z,49.21
2022-08-30T19:02:30.287Z,49.53
2022-08-30T19:04:56.835Z,49.63
2022-08-30T19:07:26.684Z,50.28
2022-08-30T19:09:58.929Z,51.18
2022-08-30T19:12:26.159Z,51.45
2022-08-30T19:14:54.179Z,51.56
2022-08-30T19:17:22.946Z,52.59
2022-08-30T19:19:52.399Z,52.79
2022-08-30T19:22:21.502Z,53.15
2022-08-30T19:24:50.039Z,53.50
2022-08-30T19:27:19.154Z,53.98
2022-08-30T19:29:53.679Z,54.64
2022-08-30T19:32:20.703Z,54.94
2022-08-30T19:34:47.137Z,55.47
2022-08-30T19:37:18.629Z,55.93
2022-08-30T19:39:46.765Z,56.31
2022-08-30T19:42:13.897Z,56.72
2022-08-30T19:44:40.387Z,56.79
2022-08-30T19:47:07.452Z,57.38
2022-08-30T19:49:35.034Z,57.95
2022-08-30T19:52:01.811Z,57.99
2022-08-30T19:54:28.277Z,58.67
2022-08-30T19:56:54.721Z,58.83
2022-08-30T19:59:21.119Z,58.91
2022-08-30T20:01:47.940Z,59.92
2022-08-30T20:04:15.904Z,60.51
2022-08-30T20:06:42.535Z,60.00
2022-08-30T20:09:10.543Z,61.13
2022-08-30T20:11:38.341Z,61.27
2022-08-30T20:14:05.243Z,61.89
2022-08-30T20:16:37.895Z,62.24
2022-08-30T20:19:06.150Z,62.87
2022-08-30T20:21:32.786Z,62.86
2022-08-30T20:24:00.836Z,62.98
2022-08-30T20:26:33.478Z,63.35
2022-08-30T20:29:01.787Z,64.04
2022-08-30T20:31:29.004Z,64.30
2022-08-30T20:33:55.521Z,64.83
2022-08-30T20:36:21.991Z,65.25
2022-08-30T20:38:48.636Z,65.61
2022-08-30T20:41:17.765Z,66.09
2022-08-30T20:43:45.405Z,65.82
2022-08-30T20:46:17.454Z,65.92
2022-08-30T20:48:44.455Z,65.90
2022-08-30T20:51:14.370Z,66.91
2022-08-30T20:53:41.213Z,67.09
2022-08-30T20:56:16.170Z,67.42
2022-08-30T20:58:43.207Z,68.13
2022-08-30T21:01:11.868Z,68.60
2022-08-30T21:03:39.298Z,68.27
2022-08-30T21:06:07.374Z,69.01
2022-08-30T21:08:34.091Z,69.21
2022-08-30T21:11:00.721Z,69.85
2022-08-30T21:13:27.266Z,70.26
2022-08-30T21:15:56.154Z,70.68
2022-08-30T21:18:32.950Z,71.14
2022-08-30T21:21:07.349Z,71.27
2022-08-30T21:23:35.335Z,71.79
2022-08-30T21:26:05.614Z,72.41
2022-08-30T21:28:32.081Z,69.20
2022-08-30T21:31:12.603Z,71.26
2022-08-30T21:33:40.308Z,72.10
2022-08-30T21:36:26.708Z,72.58
2022-08-30T21:38:53.869Z,72.27
2022-08-30T21:41:26.931Z,72.85
2022-08-30T21:43:58.030Z,72.93
2022-08-30T21:46:26.181Z,73.29
2022-08-30T21:48:53.529Z,73.79
2022-08-30T21:51:20.936Z,74.47
2022-08-30T21:53:49.665Z,74.24
2022-08-30T21:56:21.699Z,74.47
2022-08-30T21:58:49.138Z,74.83
2022-08-30T22:01:18.769Z,75.16
2022-08-30T22:03:45.471Z,75.02
2022-08-30T22:06:14.208Z,74.99
2022-08-30T22:08:43.048Z,75.62
2022-08-30T22:11:12.026Z,75.84
2022-08-30T22:13:41.712Z,76.20
2022-08-30T22:16:09.599Z,75.93
2022-08-30T22:18:36.859Z,76.64
2022-08-30T22:21:04.198Z,76.52
2022-08-30T22:23:34.344Z,76.89
2022-08-30T22:26:02.427Z,77.30
2022-08-30T22:28:29.103Z,77.39
2022-08-30T22:30:55.746Z,77.64
2022-08-30T22:33:22.234Z,77.51
2022-08-30T22:35:48.781Z,77.80
2022-08-30T22:38:15.469Z,77.50
2022-08-30T22:40:50.050Z,77.43
2022-08-30T22:43:17.232Z,77.59
2022-08-30T22:45:44.515Z,77.79
2022-08-30T22:48:11.791Z,77.65
2022-08-30T22:50:38.411Z,78.01
2022-08-30T22:53:05.430Z,78.63
2022-08-30T22:55:32.513Z,78.89
2022-08-30T22:57:59.086Z,78.76
2022-08-30T23:00:25.695Z,78.77
2022-08-30T23:02:53.791Z,79.00
2022-08-30T23:05:22.962Z,79.68
2022-08-30T23:07:50.748Z,79.84
2022-08-30T23:10:17.534Z,79.60
2022-08-30T23:12:44.080Z,79.66
2022-08-30T23:15:14.215Z,80.05
2022-08-30T23:17:40.885Z,80.10
2022-08-30T23:20:08.354Z,79.87
2022-08-30T23:22:34.804Z,79.76
2022-08-30T23:25:19.575Z,79.93
2022-08-30T23:28:05.226Z,80.43
2022-08-30T23:30:49.978Z,80.75
2022-08-30T23:33:35.071Z,80.55
2022-08-30T23:36:32.052Z,81.21
2022-08-30T23:39:17.619Z,80.93
2022-08-30T23:42:02.562Z,80.68
2022-08-30T23:44:47.653Z,80.23
2022-08-30T23:47:32.644Z,80.69
2022-08-30T23:50:17.675Z,80.85
2022-08-30T23:53:02.722Z,81.05
2022-08-30T23:55:47.577Z,81.15
2022-08-30T23:58:32.714Z,81.07
